createdAt,value
2023-01-26T00:02:19.224Z,58.87
2023-01-26T00:04:45.597Z,58.28
2023-01-26T00:07:11.968Z,56.75
2023-01-26T00:09:38.340Z,67.45
2023-01-26T00:12:04.899Z,60.25
2023-01-26T00:14:49.579Z,57.37
2023-01-26T00:17:25.813Z,59.72
2023-01-26T00:19:57.776Z,59.90
2023-01-26T00:22:26.255Z,59.38
2023-01-26T00:24:52.638Z,56.20
2023-01-26T00:27:19.040Z,63.47
2023-01-26T00:29:45.590Z,59.33
2023-01-26T00:32:12.069Z,60.45
2023-01-26T00:34:38.489Z,52.13
2023-01-26T00:37:05.115Z,54.20
2023-01-26T00:39:31.521Z,54.53
2023-01-26T00:42:06.988Z,55.35
2023-01-26T00:44:33.320Z,51.17
2023-01-26T00:46:59.732Z,54.88
2023-01-26T00:49:26.103Z,54.63
2023-01-26T00:51:52.512Z,49.17
2023-01-26T00:54:18.883Z,59.88
2023-01-26T00:56:45.292Z,51.83
2023-01-26T00:59:12.027Z,54.72
2023-01-26T01:01:38.495Z,55.38
2023-01-26T01:04:05.012Z,47.97
2023-01-26T01:06:31.440Z,51.97
2023-01-26T01:08:57.845Z,50.60
2023-01-26T01:11:24.350Z,50.63
2023-01-26T01:13:50.833Z,49.15
2023-01-26T01:16:18.028Z,47.67
2023-01-26T01:18:44.728Z,48.63
2023-01-26T01:21:13.707Z,41.28
2023-01-26T01:23:40.980Z,44.30
2023-01-26T01:26:08.741Z,47.10
2023-01-26T01:28:36.230Z,46.03
2023-01-26T01:31:07.643Z,48.33
2023-01-26T01:33:34.188Z,46.95
2023-01-26T01:36:03.483Z,42.40
2023-01-26T01:38:30.072Z,40.55
2023-01-26T01:40:57.068Z,44.30
2023-01-26T01:43:24.803Z,40.67
2023-01-26T01:45:52.313Z,44.15
2023-01-26T01:48:27.717Z,43.00
2023-01-26T01:50:57.562Z,44.00
2023-01-26T01:53:31.470Z,44.00
2023-01-26T01:56:01.025Z,39.40
2023-01-26T01:58:29.835Z,43.00
2023-01-26T02:00:56.747Z,42.22
2023-01-26T02:03:23.259Z,40.33
2023-01-26T02:05:55.812Z,39.67
2023-01-26T02:08:26.842Z,43.17
2023-01-26T02:10:58.202Z,37.85
2023-01-26T02:13:25.919Z,37.35
2023-01-26T02:15:53.061Z,34.20
2023-01-26T02:18:19.743Z,44.40
2023-01-26T02:20:55.166Z,35.92
2023-01-26T02:23:31.801Z,35.60
2023-01-26T02:26:11.285Z,38.05
2023-01-26T02:28:39.635Z,38.25
2023-01-26T02:31:06.544Z,37.00
2023-01-26T02:33:33.730Z,39.47
2023-01-26T02:36:02.740Z,36.38
2023-01-26T02:38:39.423Z,37.45
2023-01-26T02:41:10.623Z,40.35
2023-01-26T02:43:37.287Z,42.10
2023-01-26T02:46:04.048Z,39.33
2023-01-26T02:48:48.744Z,42.63
2023-01-26T02:51:15.135Z,35.55
2023-01-26T02:53:41.561Z,40.88
2023-01-26T02:56:08.003Z,41.47
2023-01-26T02:58:34.627Z,35.22
2023-01-26T03:01:01.072Z,38.03
2023-01-26T03:03:45.141Z,41.97
2023-01-26T03:06:12.871Z,42.58
2023-01-26T03:08:40.007Z,34.43
2023-01-26T03:11:08.429Z,44.30
2023-01-26T03:13:35.239Z,43.80
2023-01-26T03:16:06.875Z,40.03
2023-01-26T03:18:53.953Z,35.40
2023-01-26T03:21:39.116Z,34.90
2023-01-26T03:24:24.435Z,34.63
2023-01-26T03:27:09.761Z,37.58
2023-01-26T03:29:36.212Z,36.92
2023-01-26T03:32:02.699Z,32.05
2023-01-26T03:34:29.647Z,42.57
2023-01-26T03:36:56.175Z,34.75
2023-01-26T03:39:41.261Z,41.65
2023-01-26T03:42:26.023Z,32.15
2023-01-26T03:45:10.760Z,33.35
2023-01-26T03:47:56.555Z,28.07
2023-01-26T03:50:41.592Z,31.20
2023-01-26T03:53:39.112Z,39.67
2023-01-26T03:56:21.582Z,30.70
2023-01-26T03:58:56.789Z,33.72
2023-01-26T04:01:28.234Z,31.60
2023-01-26T04:04:14.927Z,29.42
2023-01-26T04:07:02.790Z,33.13
2023-01-26T04:09:29.876Z,31.35
2023-01-26T04:11:56.829Z,29.88
2023-01-26T04:14:50.345Z,29.10
2023-01-26T04:17:36.499Z,33.45
2023-01-26T04:20:22.125Z,31.95
2023-01-26T04:22:48.521Z,33.85
2023-01-26T04:25:18.271Z,30.77
2023-01-26T04:27:46.066Z,30.23
2023-01-26T04:30:14.798Z,28.92
2023-01-26T04:32:41.448Z,32.55
2023-01-26T04:35:09.222Z,30.75
2023-01-26T04:37:35.878Z,30.98
2023-01-26T04:40:02.377Z,27.60
2023-01-26T04:42:28.729Z,38.05
2023-01-26T04:44:55.129Z,30.95
2023-01-26T04:47:21.662Z,29.20
2023-01-26T04:49:48.049Z,33.50
2023-01-26T04:52:14.776Z,36.37
2023-01-26T04:54:41.561Z,29.77
2023-01-26T04:57:08.684Z,31.38
2023-01-26T04:59:35.244Z,33.60
2023-01-26T05:02:01.678Z,32.83
2023-01-26T05:04:28.071Z,29.97
2023-01-26T05:06:54.488Z,34.95
2023-01-26T05:09:20.912Z,30.70
2023-01-26T05:11:47.344Z,33.92
2023-01-26T05:14:13.920Z,33.10
2023-01-26T05:16:40.362Z,32.70
2023-01-26T05:19:06.731Z,35.30
2023-01-26T05:21:33.148Z,33.05
2023-01-26T05:23:59.579Z,29.50
2023-01-26T05:26:26.027Z,32.83
2023-01-26T05:28:52.504Z,39.00
2023-01-26T05:31:18.939Z,31.02
2023-01-26T05:33:45.443Z,33.35
2023-01-26T05:36:11.873Z,33.75
2023-01-26T05:38:38.413Z,27.52
2023-01-26T05:41:06.879Z,32.97
2023-01-26T05:43:33.255Z,30.75
2023-01-26T05:45:59.715Z,34.70
2023-01-26T05:48:26.125Z,30.63
2023-01-26T05:50:55.067Z,33.95
2023-01-26T05:53:21.411Z,33.37
2023-01-26T05:55:48.654Z,32.65
2023-01-26T05:58:15.051Z,27.33
2023-01-26T06:00:41.638Z,28.08
2023-01-26T06:03:08.106Z,31.08
2023-01-26T06:05:34.525Z,29.87
2023-01-26T06:08:00.941Z,28.48
2023-01-26T06:10:27.369Z,33.13
2023-01-26T06:12:53.756Z,35.42
2023-01-26T06:15:20.170Z,30.65
2023-01-26T06:17:46.677Z,28.90
2023-01-26T06:20:14.698Z,32.40
2023-01-26T06:22:41.127Z,31.05
2023-01-26T06:25:07.875Z,27.33
2023-01-26T06:27:35.655Z,30.77
2023-01-26T06:30:02.596Z,28.53
2023-01-26T06:32:29.448Z,28.13
2023-01-26T06:34:55.886Z,29.55
2023-01-26T06:37:22.268Z,28.02
2023-01-26T06:39:48.669Z,32.65
2023-01-26T06:42:15.129Z,30.87
2023-01-26T06:44:41.663Z,28.98
2023-01-26T06:47:08.083Z,27.67
2023-01-26T06:49:35.021Z,27.98
2023-01-26T06:52:31.908Z,33.55
2023-01-26T06:55:00.344Z,26.57
2023-01-26T06:57:26.741Z,27.85
2023-01-26T06:59:53.168Z,28.08
2023-01-26T07:02:21.919Z,29.67
2023-01-26T07:04:50.871Z,32.15
2023-01-26T07:07:17.337Z,30.10
2023-01-26T07:09:43.877Z,28.77
2023-01-26T07:12:10.227Z,33.10
2023-01-26T07:14:36.731Z,29.67
2023-01-26T07:17:04.004Z,33.08
2023-01-26T07:19:33.084Z,32.67
2023-01-26T07:22:00.322Z,32.15
2023-01-26T07:24:27.196Z,28.67
2023-01-26T07:26:54.165Z,25.58
2023-01-26T07:29:20.669Z,33.40
2023-01-26T07:31:47.478Z,30.40
2023-01-26T07:34:13.889Z,30.95
2023-01-26T07:36:40.447Z,30.85
2023-01-26T07:39:08.530Z,31.85
2023-01-26T07:41:35.564Z,39.17
2023-01-26T07:44:02.220Z,34.07
2023-01-26T07:46:28.822Z,34.45
2023-01-26T07:48:55.404Z,35.22
2023-01-26T07:51:21.764Z,42.38
2023-01-26T07:53:49.947Z,35.15
2023-01-26T07:56:19.547Z,37.93
2023-01-26T07:58:50.726Z,41.42
2023-01-26T08:01:17.590Z,41.78
2023-01-26T08:03:45.535Z,35.67
2023-01-26T08:06:14.743Z,35.53
2023-01-26T08:08:42.237Z,31.40
2023-01-26T08:11:10.403Z,36.25
2023-01-26T08:13:37.274Z,38.25
2023-01-26T08:16:09.327Z,31.60
2023-01-26T08:18:35.813Z,32.15
2023-01-26T08:21:02.196Z,42.00
2023-01-26T08:23:28.747Z,39.33
2023-01-26T08:25:55.368Z,38.25
2023-01-26T08:28:21.915Z,39.15
2023-01-26T08:30:48.328Z,32.90
2023-01-26T08:33:15.021Z,37.13
2023-01-26T08:35:41.476Z,39.08
2023-01-26T08:38:07.949Z,37.58
2023-01-26T08:40:34.474Z,34.28
2023-01-26T08:43:02.267Z,39.88
2023-01-26T08:45:31.757Z,36.63
2023-01-26T08:47:58.218Z,35.70
2023-01-26T08:50:25.673Z,37.67
2023-01-26T08:52:52.263Z,33.25
2023-01-26T08:55:18.647Z,33.33
2023-01-26T08:57:47.097Z,36.67
2023-01-26T09:00:14.584Z,36.95
2023-01-26T09:02:41.099Z,32.03
2023-01-26T09:05:08.363Z,38.25
2023-01-26T09:07:34.761Z,35.45
2023-01-26T09:10:01.175Z,31.67
2023-01-26T09:12:27.630Z,33.95
2023-01-26T09:14:54.016Z,28.75
2023-01-26T09:17:20.472Z,30.40
2023-01-26T09:19:47.007Z,28.75
2023-01-26T09:22:13.413Z,32.37
2023-01-26T09:24:39.770Z,31.90
2023-01-26T09:27:06.270Z,27.88
2023-01-26T09:29:33.504Z,26.17
2023-01-26T09:32:00.086Z,22.95
2023-01-26T09:34:29.828Z,31.50
2023-01-26T09:36:56.524Z,19.55
2023-01-26T09:39:22.948Z,20.40
2023-01-26T09:42:29.305Z,19.58
2023-01-26T09:45:14.478Z,18.52
2023-01-26T09:48:07.823Z,16.93
2023-01-26T09:51:07.293Z,14.88
2023-01-26T09:53:47.216Z,11.52
2023-01-26T09:56:21.393Z,10.52
2023-01-26T09:59:12.879Z,12.90
2023-01-26T10:01:46.004Z,13.63
2023-01-26T10:04:12.364Z,13.10
2023-01-26T10:06:39.035Z,9.23
2023-01-26T10:09:17.292Z,10.55
2023-01-26T10:11:48.491Z,8.13
2023-01-26T10:14:20.269Z,10.33
2023-01-26T10:16:53.686Z,12.00
2023-01-26T10:19:36.338Z,11.38
2023-01-26T10:22:14.082Z,14.13
2023-01-26T10:24:40.591Z,14.98
2023-01-26T10:27:11.570Z,8.67
2023-01-26T10:29:38.047Z,12.45
2023-01-26T10:32:04.625Z,15.95
2023-01-26T10:34:32.375Z,17.80
2023-01-26T10:37:22.493Z,11.57
2023-01-26T10:39:58.810Z,13.00
2023-01-26T10:42:29.162Z,8.85
2023-01-26T10:44:55.866Z,12.80
2023-01-26T10:47:22.511Z,11.98
2023-01-26T10:49:49.489Z,8.70
2023-01-26T10:52:25.509Z,11.60
2023-01-26T10:55:11.318Z,10.75
2023-01-26T10:57:40.008Z,10.55
2023-01-26T11:00:21.728Z,12.73
2023-01-26T11:02:54.341Z,9.85
2023-01-26T11:05:25.343Z,9.87
2023-01-26T11:08:00.052Z,11.68
2023-01-26T11:10:37.795Z,12.52
2023-01-26T11:13:21.408Z,8.95
2023-01-26T11:15:50.916Z,12.63
2023-01-26T11:18:58.983Z,11.70
2023-01-26T11:21:35.446Z,18.55
2023-01-26T11:24:15.263Z,9.38
2023-01-26T11:27:08.847Z,10.00
2023-01-26T11:29:57.271Z,10.23
2023-01-26T11:32:46.196Z,11.73
2023-01-26T11:35:37.510Z,10.90
2023-01-26T11:38:32.069Z,11.32
2023-01-26T11:41:25.352Z,9.57
2023-01-26T11:44:05.937Z,10.10
2023-01-26T11:46:38.674Z,13.77
2023-01-26T11:49:42.020Z,7.20
2023-01-26T11:52:13.345Z,5.40
2023-01-26T11:54:42.837Z,10.38
2023-01-26T11:57:20.247Z,7.93
2023-01-26T11:59:57.103Z,8.00
2023-01-26T12:02:31.837Z,7.95
2023-01-26T12:05:03.043Z,8.68
2023-01-26T12:07:51.326Z,6.60
2023-01-26T12:10:24.144Z,7.68
2023-01-26T12:12:58.310Z,3.40
2023-01-26T12:15:34.395Z,9.45
2023-01-26T12:18:17.148Z,8.07
2023-01-26T12:20:53.835Z,9.48
2023-01-26T12:23:28.515Z,10.45
2023-01-26T12:26:07.749Z,9.57
2023-01-26T12:28:43.292Z,10.95
2023-01-26T12:31:15.820Z,11.48
2023-01-26T12:33:42.586Z,13.68
2023-01-26T12:36:25.481Z,11.90
2023-01-26T12:39:13.789Z,10.17
2023-01-26T12:42:02.123Z,8.32
2023-01-26T12:44:43.080Z,11.68
2023-01-26T12:47:23.597Z,6.00
2023-01-26T12:49:59.233Z,10.95
2023-01-26T12:52:38.055Z,7.93
2023-01-26T12:55:23.126Z,9.63
2023-01-26T12:57:58.227Z,8.55
2023-01-26T13:00:29.963Z,4.88
2023-01-26T13:03:02.480Z,8.88
2023-01-26T13:05:35.227Z,6.57
2023-01-26T13:08:32.545Z,3.55
2023-01-26T13:11:00.972Z,4.63
2023-01-26T13:13:53.570Z,11.73
2023-01-26T13:16:19.907Z,7.65
2023-01-26T13:18:53.992Z,11.07
2023-01-26T13:21:40.423Z,8.52
2023-01-26T13:24:30.061Z,5.63
2023-01-26T13:26:59.838Z,6.88
2023-01-26T13:29:29.236Z,9.52
2023-01-26T13:31:58.259Z,7.80
2023-01-26T13:34:28.735Z,8.82
2023-01-26T13:37:04.295Z,5.55
2023-01-26T13:39:41.207Z,5.85
2023-01-26T13:42:23.239Z,7.50
2023-01-26T13:45:02.893Z,4.60
2023-01-26T13:47:39.090Z,8.38
2023-01-26T13:50:30.431Z,10.75
2023-01-26T13:52:57.448Z,7.63
2023-01-26T13:55:32.443Z,6.97
2023-01-26T13:58:18.189Z,4.70
2023-01-26T14:01:04.404Z,6.60
2023-01-26T14:03:31.609Z,9.00
2023-01-26T14:06:14.489Z,12.35
2023-01-26T14:08:47.607Z,10.00
2023-01-26T14:11:20.530Z,8.40
2023-01-26T14:13:51.984Z,8.60
2023-01-26T14:16:33.479Z,8.20
2023-01-26T14:19:16.191Z,9.63
2023-01-26T14:21:57.486Z,7.30
2023-01-26T14:24:34.809Z,5.37
2023-01-26T14:27:03.727Z,6.15
2023-01-26T14:29:30.641Z,3.85
2023-01-26T14:31:59.256Z,8.00
2023-01-26T14:34:28.603Z,7.53
2023-01-26T14:37:15.004Z,9.23
2023-01-26T14:39:47.810Z,9.18
2023-01-26T14:42:16.725Z,7.18
2023-01-26T14:44:43.216Z,9.20
2023-01-26T14:47:17.752Z,10.48
2023-01-26T14:49:53.834Z,7.00
2023-01-26T14:52:39.376Z,4.75
2023-01-26T14:55:18.183Z,8.82
2023-01-26T14:57:44.750Z,2.92
2023-01-26T15:00:25.446Z,4.60
2023-01-26T15:02:55.835Z,4.33
2023-01-26T15:05:30.807Z,5.75
2023-01-26T15:08:04.075Z,10.35
2023-01-26T15:10:38.053Z,5.80
2023-01-26T15:13:19.194Z,5.15
2023-01-26T15:16:02.835Z,9.80
2023-01-26T15:18:34.121Z,7.70
2023-01-26T15:21:20.086Z,8.77
2023-01-26T15:23:51.412Z,6.43
2023-01-26T15:26:34.100Z,7.45
2023-01-26T15:29:03.068Z,9.83
2023-01-26T15:31:38.882Z,6.50
2023-01-26T15:34:06.648Z,9.25
2023-01-26T15:36:44.911Z,6.70
2023-01-26T15:39:14.220Z,7.78
2023-01-26T15:41:41.856Z,7.63
2023-01-26T15:44:17.009Z,6.07
2023-01-26T15:46:43.718Z,7.90
2023-01-26T15:49:11.011Z,6.82
2023-01-26T15:51:38.129Z,7.05
2023-01-26T15:54:05.705Z,6.63
2023-01-26T15:56:32.755Z,3.58
2023-01-26T15:58:59.167Z,9.10
2023-01-26T16:01:31.480Z,2.47
2023-01-26T16:03:57.967Z,7.72
2023-01-26T16:06:26.927Z,3.57
2023-01-26T16:08:54.361Z,2.05
2023-01-26T16:11:22.196Z,2.78
2023-01-26T16:14:02.515Z,6.85
2023-01-26T16:16:30.578Z,7.13
2023-01-26T16:18:57.093Z,5.17
2023-01-26T16:21:26.084Z,12.85
2023-01-26T16:23:52.754Z,7.03
2023-01-26T16:26:19.547Z,5.97
2023-01-26T16:28:46.510Z,4.00
2023-01-26T16:31:19.512Z,6.90
2023-01-26T16:33:47.118Z,3.28
2023-01-26T16:36:15.008Z,4.00
2023-01-26T16:38:42.326Z,5.40
2023-01-26T16:41:15.326Z,3.45
2023-01-26T16:43:42.522Z,2.90
2023-01-26T16:46:09.691Z,11.60
2023-01-26T16:48:37.089Z,7.88
2023-01-26T16:51:23.919Z,6.00
2023-01-26T16:53:50.919Z,6.78
2023-01-26T16:56:18.848Z,8.63
2023-01-26T16:58:45.675Z,6.88
2023-01-26T17:01:23.966Z,4.38
2023-01-26T17:03:50.936Z,9.40
2023-01-26T17:06:19.281Z,6.57
2023-01-26T17:08:46.330Z,8.93
2023-01-26T17:11:21.153Z,11.13
2023-01-26T17:13:47.871Z,8.15
2023-01-26T17:16:18.232Z,9.07
2023-01-26T17:18:45.551Z,7.88
2023-01-26T17:21:17.076Z,7.73
2023-01-26T17:23:44.713Z,5.50
2023-01-26T17:26:15.277Z,9.10
2023-01-26T17:28:41.888Z,9.05
2023-01-26T17:31:10.750Z,12.77
2023-01-26T17:33:37.979Z,5.30
2023-01-26T17:36:05.971Z,10.82
2023-01-26T17:38:33.281Z,3.72
2023-01-26T17:41:00.163Z,7.05
2023-01-26T17:43:27.110Z,13.77
2023-01-26T17:46:12.234Z,8.97
2023-01-26T17:48:39.299Z,7.97
2023-01-26T17:51:27.235Z,10.10
2023-01-26T17:53:54.265Z,9.05
2023-01-26T17:56:21.734Z,6.00
2023-01-26T17:58:50.077Z,4.93
2023-01-26T18:01:16.875Z,5.00
2023-01-26T18:03:43.477Z,3.60
2023-01-26T18:06:11.154Z,2.90
2023-01-26T18:08:38.503Z,5.78
2023-01-26T18:11:07.522Z,7.50
2023-01-26T18:13:34.682Z,6.05
2023-01-26T18:16:01.540Z,4.57
2023-01-26T18:18:29.380Z,6.25
2023-01-26T18:20:56.695Z,6.60
2023-01-26T18:23:24.276Z,5.07
2023-01-26T18:25:51.354Z,5.70
2023-01-26T18:28:17.918Z,8.82
2023-01-26T18:30:44.718Z,9.65
2023-01-26T18:33:11.175Z,6.72
2023-01-26T18:35:37.613Z,7.80
2023-01-26T18:38:04.028Z,9.45
2023-01-26T18:40:31.042Z,6.07
2023-01-26T18:42:57.810Z,8.27
2023-01-26T18:45:24.614Z,8.43
2023-01-26T18:47:51.081Z,7.30
2023-01-26T18:50:18.022Z,9.60
2023-01-26T18:52:44.459Z,7.55
2023-01-26T18:55:11.605Z,5.78
2023-01-26T18:57:38.572Z,7.70
2023-01-26T19:00:07.941Z,7.17
2023-01-26T19:02:38.561Z,11.23
2023-01-26T19:05:06.692Z,13.90
2023-01-26T19:07:33.114Z,7.47
2023-01-26T19:09:59.501Z,8.82
2023-01-26T19:12:25.885Z,8.30
2023-01-26T19:14:52.387Z,11.77
2023-01-26T19:17:18.749Z,12.43
2023-01-26T19:19:46.047Z,12.13
2023-01-26T19:22:12.463Z,7.13
2023-01-26T19:24:38.862Z,14.93
2023-01-26T19:27:05.992Z,10.38
2023-01-26T19:29:32.463Z,8.07
2023-01-26T19:31:58.841Z,7.32
2023-01-26T19:34:28.188Z,7.75
2023-01-26T19:36:54.554Z,10.13
2023-01-26T19:39:20.882Z,9.27
2023-01-26T19:41:47.341Z,7.82
2023-01-26T19:44:13.807Z,5.88
2023-01-26T19:46:40.185Z,6.70
2023-01-26T19:49:11.630Z,11.83
2023-01-26T19:51:38.046Z,10.52
2023-01-26T19:54:04.530Z,10.40
2023-01-26T19:56:33.294Z,12.88
2023-01-26T19:59:02.428Z,10.10
2023-01-26T20:01:30.123Z,9.03
2023-01-26T20:04:04.199Z,11.88
2023-01-26T20:06:33.094Z,11.23
2023-01-26T20:08:59.954Z,12.68
2023-01-26T20:11:29.422Z,9.88
2023-01-26T20:14:00.458Z,8.60
2023-01-26T20:16:30.395Z,8.48
2023-01-26T20:18:58.924Z,8.50
2023-01-26T20:21:26.322Z,5.53
2023-01-26T20:23:55.425Z,9.80
2023-01-26T20:26:23.598Z,9.03
2023-01-26T20:28:50.853Z,11.80
2023-01-26T20:31:21.761Z,7.13
2023-01-26T20:33:49.553Z,6.20
2023-01-26T20:36:19.149Z,20.33
2023-01-26T20:38:46.953Z,9.83
2023-01-26T20:41:19.584Z,11.23
2023-01-26T20:43:59.964Z,7.55
2023-01-26T20:46:29.851Z,19.05
2023-01-26T20:48:57.112Z,8.60
2023-01-26T20:51:28.603Z,8.93
2023-01-26T20:53:55.419Z,9.02
2023-01-26T20:56:22.520Z,7.90
2023-01-26T20:58:52.765Z,16.50
2023-01-26T21:01:19.845Z,12.80
2023-01-26T21:03:46.854Z,16.50
2023-01-26T21:06:15.746Z,10.63
2023-01-26T21:08:42.251Z,8.20
2023-01-26T21:11:12.706Z,10.82
2023-01-26T21:13:41.236Z,12.02
2023-01-26T21:16:08.951Z,10.37
2023-01-26T21:18:35.489Z,5.63
2023-01-26T21:21:04.690Z,12.35
2023-01-26T21:23:32.509Z,11.88
2023-01-26T21:26:05.452Z,8.77
2023-01-26T21:28:32.217Z,11.73
2023-01-26T21:31:08.158Z,14.05
2023-01-26T21:33:37.851Z,7.13
2023-01-26T21:36:05.821Z,10.40
2023-01-26T21:38:43.938Z,7.07
2023-01-26T21:41:40.436Z,9.10
2023-01-26T21:44:10.539Z,12.30
2023-01-26T21:46:37.403Z,13.65
2023-01-26T21:49:04.592Z,10.65
2023-01-26T21:51:49.896Z,13.90
2023-01-26T21:54:16.600Z,9.30
2023-01-26T21:56:43.076Z,7.30
2023-01-26T21:59:14.473Z,10.77
2023-01-26T22:01:44.041Z,9.95
2023-01-26T22:04:13.932Z,12.05
2023-01-26T22:06:40.743Z,9.57
2023-01-26T22:09:09.253Z,7.85
2023-01-26T22:11:36.144Z,15.32
2023-01-26T22:14:02.686Z,8.88
2023-01-26T22:16:29.218Z,14.52
2023-01-26T22:18:55.747Z,9.33
2023-01-26T22:21:22.494Z,8.75
2023-01-26T22:23:48.982Z,15.18
2023-01-26T22:26:21.774Z,15.70
2023-01-26T22:28:53.455Z,12.10
2023-01-26T22:31:22.992Z,18.20
2023-01-26T22:33:50.330Z,18.38
2023-01-26T22:36:17.623Z,21.70
2023-01-26T22:38:44.489Z,13.20
2023-01-26T22:41:19.617Z,7.60
2023-01-26T22:43:50.039Z,11.07
2023-01-26T22:46:18.769Z,8.15
2023-01-26T22:48:45.254Z,8.07
2023-01-26T22:51:15.029Z,4.45
2023-01-26T22:53:42.744Z,9.23
2023-01-26T22:56:12.538Z,8.53
2023-01-26T22:58:47.646Z,9.30
2023-01-26T23:01:18.763Z,6.18
2023-01-26T23:03:45.601Z,7.72
2023-01-26T23:06:14.712Z,9.20
2023-01-26T23:08:41.961Z,5.03
2023-01-26T23:11:18.808Z,8.70
2023-01-26T23:13:46.798Z,4.22
2023-01-26T23:16:13.198Z,6.60
2023-01-26T23:18:40.348Z,5.22
2023-01-26T23:21:07.859Z,4.53
2023-01-26T23:23:34.466Z,8.07
2023-01-26T23:26:02.135Z,10.70
2023-01-26T23:28:31.463Z,6.93
2023-01-26T23:30:58.652Z,10.90
2023-01-26T23:33:26.821Z,6.53
2023-01-26T23:35:53.438Z,10.95
2023-01-26T23:38:21.583Z,7.75
2023-01-26T23:40:50.092Z,3.30
2023-01-26T23:43:17.585Z,7.90
2023-01-26T23:45:45.758Z,3.73
2023-01-26T23:48:12.921Z,6.90
2023-01-26T23:50:39.507Z,6.07
2023-01-26T23:53:06.126Z,5.90
2023-01-26T23:55:32.864Z,4.88
2023-01-26T23:57:59.402Z,4.63
